PRIVATE WETTERSTATION BILLIGHEIM-ALLFELD                       ZURCK
Wetterdaten: Montag, 13.02.2017
Datum Zeit Temp. A. Temp. A. min Temp. A. max Feuchte A. Luftdruck Regen Wind Richtung Richtung Sonnenschein ET Solar Taupunkt Windchill Windben Empfang
13.02.2017 00:00 0,2 C 0,2 C 0,3 C 89 % 1029,2 hPa 0,0 l/m 1,6 km/h (1 Bft) O 90 0 min 0,000 mm 0 W/m -1,4 C 0,2 C 9,7 km/h (2 Bft) 100 %
13.02.2017 00:10 0,2 C 0,2 C 0,2 C 89 % 1029,4 hPa 0,0 l/m 0,0 km/h (0 Bft) O-SO 112 0 min 0,000 mm 0 W/m -1,4 C 0,2 C 4,8 km/h (1 Bft) 100 %
13.02.2017 00:20 0,2 C 0,2 C 0,2 C 89 % 1029,4 hPa 0,0 l/m 0,0 km/h (0 Bft) O 90 0 min 0,000 mm 0 W/m -1,4 C 0,2 C 9,7 km/h (2 Bft) 90 %
13.02.2017 00:30 0,2 C 0,2 C 0,2 C 89 % 1029,3 hPa 0,0 l/m 0,0 km/h (0 Bft) NO 45 0 min 0,000 mm 0 W/m -1,4 C 0,2 C 1,6 km/h (1 Bft) 100 %
13.02.2017 00:40 0,2 C 0,2 C 0,2 C 89 % 1029,4 hPa 0,0 l/m 0,0 km/h (0 Bft) O-NO 67 0 min 0,000 mm 0 W/m -1,4 C 0,2 C 9,7 km/h (2 Bft) 100 %
13.02.2017 00:50 0,2 C 0,2 C 0,2 C 89 % 1029,5 hPa 0,0 l/m 3,2 km/h (1 Bft) O 90 0 min 0,000 mm 0 W/m -1,4 C 0,2 C 11,3 km/h (2 Bft) 100 %
13.02.2017 01:00 0,2 C 0,1 C 0,2 C 90 % 1029,5 hPa 0,0 l/m 1,6 km/h (1 Bft) NO 45 0 min 0,000 mm 0 W/m -1,2 C 0,2 C 11,3 km/h (2 Bft) 100 %
13.02.2017 01:10 0,1 C 0,1 C 0,2 C 90 % 1029,4 hPa 0,0 l/m 1,6 km/h (1 Bft) O 90 0 min 0,000 mm 0 W/m -1,3 C 0,1 C 11,3 km/h (2 Bft) 100 %
13.02.2017 01:20 0,1 C 0,1 C 0,2 C 90 % 1029,5 hPa 0,0 l/m 1,6 km/h (1 Bft) O-NO 67 0 min 0,000 mm 0 W/m -1,3 C 0,1 C 14,5 km/h (3 Bft) 100 %
13.02.2017 01:30 0,1 C 0,1 C 0,1 C 90 % 1029,4 hPa 0,0 l/m 0,0 km/h (0 Bft) O-NO 67 0 min 0,000 mm 0 W/m -1,3 C 0,1 C 1,6 km/h (1 Bft) 100 %
13.02.2017 01:40 0,1 C 0,1 C 0,1 C 90 % 1029,5 hPa 0,0 l/m 1,6 km/h (1 Bft) N-NO 22 0 min 0,000 mm 0 W/m -1,3 C 0,1 C 11,3 km/h (2 Bft) 100 %
13.02.2017 01:50 0,1 C 0,1 C 0,1 C 90 % 1029,4 hPa 0,0 l/m 0,0 km/h (0 Bft) O 90 0 min 0,000 mm 0 W/m -1,3 C 0,1 C 6,4 km/h (2 Bft) 100 %
13.02.2017 02:00 0,1 C 0,1 C 0,1 C 90 % 1029,4 hPa 0,0 l/m 0,0 km/h (0 Bft) NO 45 0 min 0,000 mm 0 W/m -1,3 C 0,1 C 6,4 km/h (2 Bft) 100 %
13.02.2017 02:10 0,1 C 0,1 C 0,1 C 90 % 1029,4 hPa 0,0 l/m 0,0 km/h (0 Bft) N-NO 22 0 min 0,000 mm 0 W/m -1,3 C 0,1 C 1,6 km/h (1 Bft) 100 %
13.02.2017 02:20 0,1 C 0,1 C 0,1 C 90 % 1029,4 hPa 0,0 l/m 1,6 km/h (1 Bft) O-SO 112 0 min 0,000 mm 0 W/m -1,3 C 0,1 C 9,7 km/h (2 Bft) 100 %
13.02.2017 02:30 0,1 C 0,0 C 0,1 C 90 % 1029,4 hPa 0,0 l/m 0,0 km/h (0 Bft) NO 45 0 min 0,000 mm 0 W/m -1,3 C 0,1 C 8,0 km/h (2 Bft) 100 %
13.02.2017 02:40 0,0 C 0,0 C 0,1 C 90 % 1029,4 hPa 0,0 l/m 0,0 km/h (0 Bft) NO 45 0 min 0,000 mm 0 W/m -1,4 C 0,0 C 4,8 km/h (1 Bft) 100 %
13.02.2017 02:50 0,0 C 0,0 C 0,1 C 90 % 1029,4 hPa 0,0 l/m 0,0 km/h (0 Bft) N 0 0 min 0,000 mm 0 W/m -1,4 C 0,0 C 0,0 km/h (0 Bft) 100 %
13.02.2017 03:00 0,0 C 0,0 C 0,0 C 90 % 1029,4 hPa 0,0 l/m 0,0 km/h (0 Bft) N-NO 22 0 min 0,000 mm 0 W/m -1,4 C 0,0 C 11,3 km/h (2 Bft) 100 %
13.02.2017 03:10 0,0 C 0,0 C 0,0 C 90 % 1029,3 hPa 0,0 l/m 1,6 km/h (1 Bft) NO 45 0 min 0,000 mm 0 W/m -1,4 C 0,0 C 9,7 km/h (2 Bft) 100 %
13.02.2017 03:20 0,0 C 0,0 C 0,0 C 90 % 1029,4 hPa 0,0 l/m 1,6 km/h (1 Bft) O-SO 112 0 min 0,000 mm 0 W/m -1,4 C 0,0 C 14,5 km/h (3 Bft) 100 %
13.02.2017 03:30 0,0 C -0,1 C 0,0 C 90 % 1029,4 hPa 0,0 l/m 0,0 km/h (0 Bft) O-NO 67 0 min 0,000 mm 0 W/m -1,4 C 0,0 C 8,0 km/h (2 Bft) 100 %
13.02.2017 03:40 -0,1 C -0,1 C 0,0 C 90 % 1029,3 hPa 0,0 l/m 1,6 km/h (1 Bft) O 90 0 min 0,000 mm 0 W/m -1,5 C -0,1 C 6,4 km/h (2 Bft) 100 %
13.02.2017 03:50 -0,1 C -0,1 C 0,0 C 90 % 1029,3 hPa 0,0 l/m 0,0 km/h (0 Bft) O-NO 67 0 min 0,000 mm 0 W/m -1,5 C -0,1 C 4,8 km/h (1 Bft) 100 %
13.02.2017 04:00 -0,1 C -0,1 C -0,1 C 90 % 1029,3 hPa 0,0 l/m 1,6 km/h (1 Bft) O-NO 67 0 min 0,000 mm 0 W/m -1,5 C -0,1 C 9,7 km/h (2 Bft) 100 %
13.02.2017 04:10 -0,1 C -0,1 C -0,1 C 90 % 1029,2 hPa 0,0 l/m 0,0 km/h (0 Bft) O-SO 112 0 min 0,000 mm 0 W/m -1,5 C -0,1 C 9,7 km/h (2 Bft) 100 %
13.02.2017 04:20 -0,1 C -0,1 C -0,1 C 90 % 1029,2 hPa 0,0 l/m 1,6 km/h (1 Bft) NO 45 0 min 0,000 mm 0 W/m -1,5 C -0,1 C 8,0 km/h (2 Bft) 100 %
13.02.2017 04:30 -0,1 C -0,1 C -0,1 C 90 % 1029,3 hPa 0,0 l/m 0,0 km/h (0 Bft) SO 135 0 min 0,000 mm 0 W/m -1,5 C -0,1 C 4,8 km/h (1 Bft) 100 %
13.02.2017 04:40 -0,1 C -0,1 C -0,1 C 90 % 1029,2 hPa 0,0 l/m 1,6 km/h (1 Bft) O-NO 67 0 min 0,000 mm 0 W/m -1,5 C -0,1 C 11,3 km/h (2 Bft) 100 %
13.02.2017 04:50 -0,1 C -0,1 C -0,1 C 90 % 1029,3 hPa 0,0 l/m 1,6 km/h (1 Bft) O 90 0 min 0,000 mm 0 W/m -1,5 C -0,1 C 11,3 km/h (2 Bft) 100 %
13.02.2017 05:00 -0,1 C -0,1 C -0,1 C 90 % 1029,3 hPa 0,0 l/m 0,0 km/h (0 Bft) O-NO 67 0 min 0,000 mm 0 W/m -1,5 C -0,1 C 9,7 km/h (2 Bft) 100 %
13.02.2017 05:10 -0,1 C -0,1 C -0,1 C 90 % 1029,3 hPa 0,0 l/m 1,6 km/h (1 Bft) N-NO 22 0 min 0,000 mm 0 W/m -1,5 C -0,1 C 11,3 km/h (2 Bft) 100 %
13.02.2017 05:20 -0,1 C -0,1 C -0,1 C 90 % 1029,3 hPa 0,0 l/m 3,2 km/h (1 Bft) NO 45 0 min 0,000 mm 0 W/m -1,5 C -0,1 C 14,5 km/h (3 Bft) 100 %
13.02.2017 05:30 -0,1 C -0,1 C -0,1 C 89 % 1029,4 hPa 0,0 l/m 0,0 km/h (0 Bft) NO 45 0 min 0,000 mm 0 W/m -1,7 C -0,1 C 9,7 km/h (2 Bft) 100 %
13.02.2017 05:40 -0,1 C -0,1 C -0,1 C 89 % 1029,5 hPa 0,0 l/m 1,6 km/h (1 Bft) O-NO 67 0 min 0,000 mm 0 W/m -1,7 C -0,1 C 11,3 km/h (2 Bft) 100 %
13.02.2017 05:50 -0,1 C -0,1 C -0,1 C 89 % 1029,5 hPa 0,0 l/m 1,6 km/h (1 Bft) O-NO 67 0 min 0,000 mm 0 W/m -1,7 C -0,1 C 11,3 km/h (2 Bft) 100 %
13.02.2017 06:00 -0,1 C -0,1 C -0,1 C 89 % 1029,3 hPa 0,0 l/m 1,6 km/h (1 Bft) NO 45 0 min 0,000 mm 0 W/m -1,7 C -0,1 C 14,5 km/h (3 Bft) 100 %
13.02.2017 06:10 -0,1 C -0,1 C -0,1 C 89 % 1029,4 hPa 0,0 l/m 1,6 km/h (1 Bft) NO 45 0 min 0,000 mm 0 W/m -1,7 C -0,1 C 9,7 km/h (2 Bft) 100 %
13.02.2017 06:20 -0,1 C -0,1 C -0,1 C 89 % 1029,4 hPa 0,0 l/m 1,6 km/h (1 Bft) O 90 0 min 0,000 mm 0 W/m -1,7 C -0,1 C 12,9 km/h (3 Bft) 100 %
13.02.2017 06:30 -0,1 C -0,1 C -0,1 C 89 % 1029,3 hPa 0,0 l/m 0,0 km/h (0 Bft) O-SO 112 0 min 0,000 mm 0 W/m -1,7 C -0,1 C 8,0 km/h (2 Bft) 100 %
13.02.2017 06:40 -0,1 C -0,1 C -0,1 C 89 % 1029,2 hPa 0,0 l/m 1,6 km/h (1 Bft) O-SO 112 0 min 0,000 mm 0 W/m -1,7 C -0,1 C 16,1 km/h (3 Bft) 100 %
13.02.2017 06:50 -0,1 C -0,1 C -0,1 C 89 % 1029,3 hPa 0,0 l/m 0,0 km/h (0 Bft) O 90 0 min 0,000 mm 0 W/m -1,7 C -0,1 C 6,4 km/h (2 Bft) 100 %
13.02.2017 07:00 -0,1 C -0,1 C -0,1 C 89 % 1029,4 hPa 0,0 l/m 4,8 km/h (1 Bft) O 90 0 min 0,000 mm 0 W/m -1,7 C -0,1 C 11,3 km/h (2 Bft) 100 %
13.02.2017 07:10 -0,1 C -0,1 C -0,1 C 89 % 1029,2 hPa 0,0 l/m 0,0 km/h (0 Bft) O-SO 112 0 min 0,000 mm 0 W/m -1,7 C -0,1 C 6,4 km/h (2 Bft) 100 %
13.02.2017 07:20 -0,1 C -0,1 C -0,1 C 89 % 1029,2 hPa 0,0 l/m 0,0 km/h (0 Bft) N 0 0 min 0,000 mm 0 W/m -1,7 C -0,1 C 0,0 km/h (0 Bft) 100 %
13.02.2017 07:30 -0,1 C -0,1 C -0,1 C 89 % 1029,2 hPa 0,0 l/m 0,0 km/h (0 Bft) O-SO 112 0 min 0,000 mm 0 W/m -1,7 C -0,1 C 4,8 km/h (1 Bft) 91 %
13.02.2017 07:40 -0,1 C -0,1 C -0,1 C 89 % 1029,4 hPa 0,0 l/m 3,2 km/h (1 Bft) O 90 0 min 0,000 mm 0 W/m -1,7 C -0,1 C 17,7 km/h (3 Bft) 100 %
13.02.2017 07:50 -0,1 C -0,1 C -0,1 C 89 % 1029,5 hPa 0,0 l/m 1,6 km/h (1 Bft) NO 45 0 min 0,000 mm 0 W/m -1,7 C -0,1 C 11,3 km/h (2 Bft) 100 %
13.02.2017 08:00 0,0 C -0,1 C 0,0 C 89 % 1029,5 hPa 0,0 l/m 3,2 km/h (1 Bft) O-NO 67 0 min 0,000 mm 0 W/m -1,6 C 0,0 C 16,1 km/h (3 Bft) 100 %
13.02.2017 08:10 0,0 C 0,0 C 0,0 C 89 % 1029,6 hPa 0,0 l/m 0,0 km/h (0 Bft) SO 135 0 min 0,000 mm 9 W/m -1,6 C 0,0 C 8,0 km/h (2 Bft) 100 %
13.02.2017 08:20 0,0 C 0,0 C 0,1 C 88 % 1029,6 hPa 0,0 l/m 3,2 km/h (1 Bft) NO 45 0 min 0,000 mm 11 W/m -1,7 C 0,0 C 14,5 km/h (3 Bft) 100 %
13.02.2017 08:30 0,1 C 0,1 C 0,1 C 89 % 1029,6 hPa 0,0 l/m 0,0 km/h (0 Bft) O 90 0 min 0,000 mm 11 W/m -1,5 C 0,1 C 6,4 km/h (2 Bft) 100 %
13.02.2017 08:40 0,1 C 0,1 C 0,1 C 89 % 1029,6 hPa 0,0 l/m 1,6 km/h (1 Bft) O-NO 67 0 min 0,000 mm 14 W/m -1,5 C 0,1 C 9,7 km/h (2 Bft) 100 %
13.02.2017 08:50 0,1 C 0,1 C 0,2 C 88 % 1029,6 hPa 0,0 l/m 1,6 km/h (1 Bft) O 90 0 min 0,000 mm 18 W/m -1,6 C 0,1 C 8,0 km/h (2 Bft) 100 %
13.02.2017 09:00 0,2 C 0,1 C 0,2 C 88 % 1029,6 hPa 0,0 l/m 0,0 km/h (0 Bft) N 360 0 min 0,000 mm 26 W/m -1,5 C 0,2 C 4,8 km/h (1 Bft) 91 %
13.02.2017 09:10 0,2 C 0,2 C 0,2 C 88 % 1029,6 hPa 0,0 l/m 0,0 km/h (0 Bft) O-SO 112 0 min 0,000 mm 33 W/m -1,5 C 0,2 C 8,0 km/h (2 Bft) 100 %
13.02.2017 09:20 0,3 C 0,2 C 0,3 C 88 % 1029,7 hPa 0,0 l/m 1,6 km/h (1 Bft) O-NO 67 0 min 0,000 mm 35 W/m -1,4 C 0,3 C 14,5 km/h (3 Bft) 100 %
13.02.2017 09:30 0,3 C 0,3 C 0,4 C 87 % 1029,7 hPa 0,0 l/m 0,0 km/h (0 Bft) SO 135 0 min 0,000 mm 46 W/m -1,6 C 0,3 C 6,4 km/h (2 Bft) 100 %
13.02.2017 09:40 0,4 C 0,4 C 0,4 C 86 % 1029,6 hPa 0,0 l/m 0,0 km/h (0 Bft) O 90 0 min 0,000 mm 51 W/m -1,7 C 0,4 C 14,5 km/h (3 Bft) 100 %
13.02.2017 09:50 0,4 C 0,4 C 0,4 C 86 % 1029,8 hPa 0,0 l/m 4,8 km/h (1 Bft) O 90 0 min 0,000 mm 62 W/m -1,7 C 0,4 C 17,7 km/h (3 Bft) 100 %
13.02.2017 10:00 0,6 C 0,4 C 0,6 C 86 % 1029,5 hPa 0,0 l/m 3,2 km/h (1 Bft) O-SO 112 0 min 0,025 mm 84 W/m -1,5 C 0,6 C 14,5 km/h (3 Bft) 100 %
13.02.2017 10:10 0,7 C 0,6 C 0,7 C 86 % 1029,6 hPa 0,0 l/m 1,6 km/h (1 Bft) O 90 0 min 0,000 mm 91 W/m -1,4 C 0,7 C 8,0 km/h (2 Bft) 100 %
13.02.2017 10:20 0,9 C 0,7 C 0,9 C 85 % 1029,4 hPa 0,0 l/m 1,6 km/h (1 Bft) O 90 0 min 0,000 mm 118 W/m -1,3 C 0,9 C 8,0 km/h (2 Bft) 100 %
13.02.2017 10:30 1,1 C 0,9 C 1,1 C 85 % 1029,6 hPa 0,0 l/m 1,6 km/h (1 Bft) N-NO 22 0 min 0,000 mm 125 W/m -1,1 C 1,1 C 16,1 km/h (3 Bft) 100 %
13.02.2017 10:40 1,2 C 1,1 C 1,3 C 85 % 1029,5 hPa 0,0 l/m 3,2 km/h (1 Bft) NO 45 0 min 0,000 mm 139 W/m -1,0 C 1,2 C 11,3 km/h (2 Bft) 100 %
13.02.2017 10:50 1,4 C 1,3 C 1,4 C 84 % 1029,4 hPa 0,0 l/m 1,6 km/h (1 Bft) O 90 10 min 0,000 mm 160 W/m -1,0 C 1,4 C 11,3 km/h (2 Bft) 100 %
13.02.2017 11:10 1,9 C 1,3 C 1,9 C 82 % 1029,4 hPa 0,0 l/m 3,3 km/h (1 Bft) O 91 20 min 0,051 mm 183 W/m -0,8 C 1,9 C 16,1 km/h (3 Bft) 100 %
13.02.2017 11:20 2,2 C 1,9 C 2,2 C 82 % 1029,3 hPa 0,0 l/m 2,8 km/h (1 Bft) N 5 10 min 0,000 mm 243 W/m -0,5 C 2,2 C 14,5 km/h (3 Bft) 100 %
13.02.2017 11:30 2,6 C 2,2 C 2,6 C 81 % 1029,3 hPa 0,0 l/m 2,9 km/h (1 Bft) N-NO 31 10 min 0,000 mm 348 W/m -0,3 C 2,6 C 9,7 km/h (2 Bft) 100 %
13.02.2017 11:40 3,1 C 2,6 C 3,1 C 79 % 1029,2 hPa 0,0 l/m 5,8 km/h (2 Bft) O-SO 123 10 min 0,000 mm 279 W/m -0,2 C 3,1 C 24,1 km/h (4 Bft) 100 %
13.02.2017 11:50 3,6 C 3,1 C 3,6 C 78 % 1029,1 hPa 0,0 l/m 3,7 km/h (1 Bft) NO 47 10 min 0,000 mm 533 W/m 0,1 C 3,6 C 16,1 km/h (3 Bft) 99 %
13.02.2017 12:00 4,1 C 3,6 C 4,1 C 74 % 1028,9 hPa 0,0 l/m 7,2 km/h (2 Bft) O-NO 78 10 min 0,000 mm 427 W/m -0,1 C 3,4 C 24,1 km/h (4 Bft) 100 %
13.02.2017 12:10 4,3 C 4,1 C 4,3 C 76 % 1028,9 hPa 0,0 l/m 5,6 km/h (1 Bft) S-SO 154 10 min 0,127 mm 445 W/m 0,5 C 4,3 C 22,5 km/h (4 Bft) 100 %
13.02.2017 12:20 4,4 C 4,3 C 4,4 C 73 % 1028,9 hPa 0,0 l/m 7,5 km/h (2 Bft) O 99 10 min 0,000 mm 443 W/m -0,0 C 3,4 C 22,5 km/h (4 Bft) 100 %
13.02.2017 12:30 4,9 C 4,4 C 4,9 C 73 % 1028,8 hPa 0,0 l/m 2,9 km/h (1 Bft) NO 49 10 min 0,000 mm 443 W/m 0,5 C 4,9 C 16,1 km/h (3 Bft) 98 %
13.02.2017 12:40 5,2 C 4,9 C 5,2 C 70 % 1028,6 hPa 0,0 l/m 6,0 km/h (2 Bft) O-SO 103 10 min 0,000 mm 454 W/m 0,2 C 5,2 C 27,4 km/h (4 Bft) 98 %
13.02.2017 12:50 5,2 C 5,1 C 5,2 C 71 % 1028,6 hPa 0,0 l/m 5,8 km/h (2 Bft) O 84 10 min 0,000 mm 411 W/m 0,4 C 5,2 C 17,7 km/h (3 Bft) 97 %
13.02.2017 13:00 5,4 C 5,2 C 5,4 C 72 % 1028,4 hPa 0,0 l/m 4,3 km/h (1 Bft) NO 39 10 min 0,000 mm 330 W/m 0,8 C 5,4 C 17,7 km/h (3 Bft) 98 %
13.02.2017 13:10 5,7 C 5,4 C 5,7 C 70 % 1028,4 hPa 0,0 l/m 4,1 km/h (1 Bft) S-SO 148 10 min 0,178 mm 424 W/m 0,7 C 5,7 C 20,9 km/h (4 Bft) 97 %
13.02.2017 13:20 6,0 C 5,7 C 6,0 C 70 % 1028,0 hPa 0,0 l/m 2,8 km/h (1 Bft) NO 51 10 min 0,000 mm 438 W/m 1,0 C 6,0 C 22,5 km/h (4 Bft) 98 %
13.02.2017 13:30 6,4 C 6,0 C 6,4 C 68 % 1027,9 hPa 0,0 l/m 1,3 km/h (1 Bft) N-NO 22 10 min 0,000 mm 322 W/m 0,9 C 6,4 C 14,5 km/h (3 Bft) 98 %
13.02.2017 13:40 6,7 C 6,4 C 6,7 C 67 % 1027,7 hPa 0,0 l/m 4,0 km/h (1 Bft) O 90 10 min 0,000 mm 373 W/m 1,0 C 6,7 C 11,3 km/h (2 Bft) 97 %
13.02.2017 13:50 6,8 C 6,7 C 6,8 C 66 % 1027,7 hPa 0,0 l/m 2,5 km/h (1 Bft) O-SO 109 10 min 0,000 mm 408 W/m 0,9 C 6,8 C 12,9 km/h (3 Bft) 98 %
13.02.2017 14:00 6,7 C 6,7 C 6,8 C 66 % 1027,7 hPa 0,0 l/m 4,5 km/h (1 Bft) O-NO 61 10 min 0,178 mm 396 W/m 0,8 C 6,7 C 17,7 km/h (3 Bft) 98 %
13.02.2017 14:10 7,0 C 6,7 C 7,0 C 65 % 1027,5 hPa 0,0 l/m 3,3 km/h (1 Bft) O-NO 74 10 min 0,000 mm 190 W/m 0,9 C 7,0 C 16,1 km/h (3 Bft) 98 %
13.02.2017 14:20 7,3 C 7,0 C 7,3 C 64 % 1027,3 hPa 0,0 l/m 5,5 km/h (1 Bft) O 90 10 min 0,000 mm 353 W/m 1,0 C 7,3 C 24,1 km/h (4 Bft) 97 %
13.02.2017 14:30 7,5 C 7,3 C 7,5 C 64 % 1027,4 hPa 0,0 l/m 4,6 km/h (1 Bft) O 93 10 min 0,000 mm 359 W/m 1,1 C 7,5 C 19,3 km/h (3 Bft) 98 %
13.02.2017 14:40 7,6 C 7,5 C 7,6 C 63 % 1027,3 hPa 0,0 l/m 5,1 km/h (1 Bft) O-NO 65 10 min 0,000 mm 343 W/m 1,0 C 7,6 C 24,1 km/h (4 Bft) 97 %
13.02.2017 14:50 7,8 C 7,6 C 7,8 C 63 % 1027,2 hPa 0,0 l/m 5,0 km/h (1 Bft) O 94 10 min 0,000 mm 334 W/m 1,2 C 7,8 C 22,5 km/h (4 Bft) 97 %
13.02.2017 15:00 7,9 C 7,8 C 7,9 C 61 % 1027,0 hPa 0,0 l/m 4,2 km/h (1 Bft) SO 141 10 min 0,152 mm 297 W/m 0,9 C 7,9 C 17,7 km/h (3 Bft) 98 %
13.02.2017 15:10 7,9 C 7,9 C 7,9 C 62 % 1027,1 hPa 0,0 l/m 4,0 km/h (1 Bft) SO 146 0 min 0,000 mm 54 W/m 1,1 C 7,9 C 20,9 km/h (4 Bft) 97 %
13.02.2017 15:20 8,0 C 7,9 C 8,1 C 61 % 1027,0 hPa 0,0 l/m 3,6 km/h (1 Bft) NO 37 0 min 0,000 mm 49 W/m 0,9 C 8,0 C 16,1 km/h (3 Bft) 98 %
13.02.2017 15:30 8,1 C 8,0 C 8,1 C 59 % 1026,9 hPa 0,0 l/m 4,1 km/h (1 Bft) O 98 0 min 0,000 mm 46 W/m 0,6 C 8,1 C 19,3 km/h (3 Bft) 98 %
13.02.2017 15:40 7,9 C 7,9 C 8,1 C 59 % 1026,7 hPa 0,0 l/m 4,4 km/h (1 Bft) O 86 0 min 0,000 mm 44 W/m 0,4 C 7,9 C 29,0 km/h (5 Bft) 100 %
13.02.2017 15:50 7,9 C 7,9 C 8,0 C 60 % 1026,8 hPa 0,0 l/m 2,9 km/h (1 Bft) NO 54 0 min 0,000 mm 40 W/m 0,6 C 7,9 C 16,1 km/h (3 Bft) 100 %
13.02.2017 16:00 7,9 C 7,9 C 7,9 C 60 % 1026,7 hPa 0,0 l/m 1,1 km/h (1 Bft) O 89 0 min 0,051 mm 39 W/m 0,6 C 7,9 C 11,3 km/h (2 Bft) 100 %
13.02.2017 16:10 7,8 C 7,8 C 7,9 C 60 % 1026,6 hPa 0,0 l/m 2,2 km/h (1 Bft) O 86 0 min 0,000 mm 37 W/m 0,5 C 7,8 C 9,7 km/h (2 Bft) 100 %
13.02.2017 16:20 7,7 C 7,7 C 7,9 C 60 % 1026,5 hPa 0,0 l/m 3,9 km/h (1 Bft) O-NO 60 0 min 0,000 mm 33 W/m 0,4 C 7,7 C 14,5 km/h (3 Bft) 100 %
13.02.2017 16:30 7,3 C 7,3 C 7,7 C 65 % 1026,5 hPa 0,0 l/m 5,9 km/h (2 Bft) NO 42 0 min 0,000 mm 32 W/m 1,2 C 7,3 C 14,5 km/h (3 Bft) 100 %
13.02.2017 16:40 6,9 C 6,9 C 7,3 C 66 % 1026,3 hPa 0,0 l/m 3,1 km/h (1 Bft) NO 45 0 min 0,000 mm 28 W/m 1,0 C 6,9 C 8,0 km/h (2 Bft) 100 %
13.02.2017 16:50 6,7 C 6,7 C 6,9 C 66 % 1026,4 hPa 0,0 l/m 0,7 km/h (0 Bft) NO 34 0 min 0,000 mm 25 W/m 0,8 C 6,7 C 6,4 km/h (2 Bft) 100 %
13.02.2017 17:00 6,4 C 6,4 C 6,7 C 67 % 1026,4 hPa 0,0 l/m 0,7 km/h (0 Bft) NO 46 0 min 0,025 mm 21 W/m 0,7 C 6,4 C 8,0 km/h (2 Bft) 100 %
13.02.2017 17:10 6,2 C 6,2 C 6,4 C 67 % 1026,5 hPa 0,0 l/m 1,1 km/h (1 Bft) N-NO 24 0 min 0,000 mm 18 W/m 0,5 C 6,2 C 14,5 km/h (3 Bft) 100 %
13.02.2017 17:20 5,9 C 5,9 C 6,2 C 67 % 1026,4 hPa 0,0 l/m 1,3 km/h (1 Bft) NO 44 0 min 0,000 mm 11 W/m 0,3 C 5,9 C 9,7 km/h (2 Bft) 100 %
13.02.2017 17:30 5,7 C 5,7 C 5,9 C 66 % 1026,5 hPa 0,0 l/m 1,1 km/h (1 Bft) N-NO 28 0 min 0,000 mm 5 W/m -0,1 C 5,7 C 9,7 km/h (2 Bft) 100 %
13.02.2017 17:40 5,5 C 5,5 C 5,7 C 67 % 1026,5 hPa 0,0 l/m 0,6 km/h (0 Bft) NO 51 0 min 0,000 mm 0 W/m -0,1 C 5,5 C 8,0 km/h (2 Bft) 100 %
13.02.2017 17:50 5,2 C 5,2 C 5,5 C 68 % 1026,5 hPa 0,0 l/m 0,0 km/h (0 Bft) O-NO 63 0 min 0,000 mm 0 W/m -0,2 C 5,2 C 0,0 km/h (0 Bft) 100 %
13.02.2017 18:00 4,8 C 4,8 C 5,2 C 69 % 1026,5 hPa 0,0 l/m 0,1 km/h (0 Bft) NO 56 0 min 0,000 mm 0 W/m -0,4 C 4,8 C 3,2 km/h (1 Bft) 100 %
13.02.2017 18:10 4,6 C 4,6 C 4,8 C 69 % 1026,7 hPa 0,0 l/m 0,0 km/h (0 Bft) O-NO 70 0 min 0,000 mm 0 W/m -0,6 C 4,6 C 0,0 km/h (0 Bft) 98 %
13.02.2017 18:20 4,4 C 4,4 C 4,6 C 68 % 1026,7 hPa 0,0 l/m 0,0 km/h (0 Bft) O 90 0 min 0,000 mm 0 W/m -1,0 C 4,4 C 0,0 km/h (0 Bft) 100 %
13.02.2017 18:30 4,4 C 4,4 C 4,5 C 68 % 1026,6 hPa 0,0 l/m 0,1 km/h (0 Bft) NO 53 0 min 0,000 mm 0 W/m -1,0 C 4,4 C 3,2 km/h (1 Bft) 100 %
13.02.2017 18:40 4,3 C 4,3 C 4,4 C 67 % 1026,7 hPa 0,0 l/m 0,8 km/h (0 Bft) N-NO 26 0 min 0,000 mm 0 W/m -1,3 C 4,3 C 6,4 km/h (2 Bft) 100 %
13.02.2017 18:50 4,2 C 4,2 C 4,3 C 67 % 1026,7 hPa 0,0 l/m 1,7 km/h (1 Bft) N-NO 13 0 min 0,000 mm 0 W/m -1,4 C 4,2 C 9,7 km/h (2 Bft) 99 %
13.02.2017 19:00 3,9 C 3,9 C 4,2 C 67 % 1026,8 hPa 0,0 l/m 2,1 km/h (1 Bft) NO 42 0 min 0,026 mm 0 W/m -1,7 C 3,9 C 9,7 km/h (2 Bft) 91 %
13.02.2017 19:10 3,8 C 3,8 C 3,9 C 67 % 1026,7 hPa 0,0 l/m 1,7 km/h (1 Bft) NO 51 0 min 0,000 mm 0 W/m -1,8 C 3,8 C 9,7 km/h (2 Bft) 99 %
13.02.2017 19:20 3,5 C 3,5 C 3,8 C 67 % 1026,9 hPa 0,0 l/m 1,5 km/h (1 Bft) N-NO 28 0 min 0,000 mm 0 W/m -2,0 C 3,5 C 9,7 km/h (2 Bft) 99 %
13.02.2017 19:30 3,3 C 3,3 C 3,5 C 67 % 1026,7 hPa 0,0 l/m 1,6 km/h (1 Bft) N-NO 32 0 min 0,000 mm 0 W/m -2,2 C 3,3 C 6,4 km/h (2 Bft) 100 %
13.02.2017 19:40 3,1 C 3,1 C 3,3 C 67 % 1026,8 hPa 0,0 l/m 1,9 km/h (1 Bft) NO 38 0 min 0,000 mm 0 W/m -2,4 C 3,1 C 6,4 km/h (2 Bft) 100 %
13.02.2017 19:50 3,0 C 3,0 C 3,1 C 66 % 1026,8 hPa 0,0 l/m 1,6 km/h (1 Bft) NO 38 0 min 0,000 mm 0 W/m -2,7 C 3,0 C 6,4 km/h (2 Bft) 99 %
13.02.2017 20:00 2,9 C 2,9 C 3,0 C 66 % 1026,8 hPa 0,0 l/m 3,6 km/h (1 Bft) NO 39 0 min 0,025 mm 0 W/m -2,8 C 2,9 C 6,4 km/h (2 Bft) 99 %
13.02.2017 20:10 2,9 C 2,9 C 2,9 C 65 % 1026,7 hPa 0,0 l/m 4,7 km/h (1 Bft) NO 41 0 min 0,000 mm 0 W/m -3,0 C 2,9 C 11,3 km/h (2 Bft) 100 %
13.02.2017 20:20 2,8 C 2,8 C 2,9 C 65 % 1026,6 hPa 0,0 l/m 3,4 km/h (1 Bft) NO 40 0 min 0,000 mm 0 W/m -3,1 C 2,8 C 9,7 km/h (2 Bft) 99 %
13.02.2017 20:30 2,8 C 2,8 C 2,8 C 65 % 1026,4 hPa 0,0 l/m 3,4 km/h (1 Bft) N-NO 32 0 min 0,000 mm 0 W/m -3,1 C 2,8 C 8,0 km/h (2 Bft) 100 %
13.02.2017 20:40 2,8 C 2,8 C 2,8 C 65 % 1026,4 hPa 0,0 l/m 1,2 km/h (1 Bft) NO 38 0 min 0,000 mm 0 W/m -3,1 C 2,8 C 9,7 km/h (2 Bft) 99 %
13.02.2017 20:50 2,6 C 2,6 C 2,8 C 64 % 1026,5 hPa 0,0 l/m 1,5 km/h (1 Bft) N-NO 25 0 min 0,000 mm 0 W/m -3,5 C 2,6 C 11,3 km/h (2 Bft) 100 %
13.02.2017 21:00 2,6 C 2,6 C 2,7 C 65 % 1026,6 hPa 0,0 l/m 0,3 km/h (0 Bft) O-NO 59 0 min 0,026 mm 0 W/m -3,3 C 2,6 C 4,8 km/h (1 Bft) 100 %
13.02.2017 21:10 2,4 C 2,4 C 2,6 C 66 % 1026,5 hPa 0,0 l/m 1,6 km/h (1 Bft) NO 45 0 min 0,000 mm 0 W/m -3,3 C 2,4 C 8,0 km/h (2 Bft) 98 %
13.02.2017 21:20 2,3 C 2,3 C 2,4 C 66 % 1026,6 hPa 0,0 l/m 0,0 km/h (0 Bft) N-NO 22 0 min 0,000 mm 0 W/m -3,4 C 2,3 C 4,8 km/h (1 Bft) 98 %
13.02.2017 21:30 2,1 C 2,1 C 2,3 C 67 % 1026,7 hPa 0,0 l/m 0,0 km/h (0 Bft) N-NO 22 0 min 0,000 mm 0 W/m -3,4 C 2,1 C 3,2 km/h (1 Bft) 99 %
13.02.2017 21:40 1,8 C 1,8 C 2,1 C 68 % 1026,4 hPa 0,0 l/m 1,6 km/h (1 Bft) N-NO 22 0 min 0,000 mm 0 W/m -3,5 C 1,8 C 4,8 km/h (1 Bft) 100 %
13.02.2017 21:50 1,7 C 1,7 C 1,8 C 69 % 1026,5 hPa 0,0 l/m 0,0 km/h (0 Bft) O-NO 67 0 min 0,000 mm 0 W/m -3,4 C 1,7 C 4,8 km/h (1 Bft) 100 %
13.02.2017 22:00 1,6 C 1,6 C 1,7 C 70 % 1026,5 hPa 0,0 l/m 1,6 km/h (1 Bft) O-NO 67 0 min 0,025 mm 0 W/m -3,3 C 1,6 C 4,8 km/h (1 Bft) 100 %
13.02.2017 22:10 1,6 C 1,6 C 1,6 C 70 % 1026,5 hPa 0,0 l/m 3,2 km/h (1 Bft) NO 45 0 min 0,000 mm 0 W/m -3,3 C 1,6 C 8,0 km/h (2 Bft) 100 %
13.02.2017 22:20 1,4 C 1,4 C 1,6 C 71 % 1026,5 hPa 0,0 l/m 3,2 km/h (1 Bft) NO 45 0 min 0,000 mm 0 W/m -3,3 C 1,4 C 6,4 km/h (2 Bft) 100 %
13.02.2017 22:30 1,4 C 1,4 C 1,4 C 71 % 1026,5 hPa 0,0 l/m 4,8 km/h (1 Bft) NO 45 0 min 0,000 mm 0 W/m -3,3 C 1,4 C 8,0 km/h (2 Bft) 100 %
13.02.2017 22:40 1,4 C 1,4 C 1,4 C 71 % 1026,6 hPa 0,0 l/m 1,6 km/h (1 Bft) NO 45 0 min 0,000 mm 0 W/m -3,3 C 1,4 C 8,0 km/h (2 Bft) 100 %
13.02.2017 22:50 1,4 C 1,4 C 1,4 C 71 % 1026,5 hPa 0,0 l/m 1,6 km/h (1 Bft) NO 45 0 min 0,000 mm 0 W/m -3,3 C 1,4 C 6,4 km/h (2 Bft) 99 %
13.02.2017 23:00 1,3 C 1,3 C 1,4 C 72 % 1026,5 hPa 0,0 l/m 0,0 km/h (0 Bft) NO 45 0 min 0,025 mm 0 W/m -3,2 C 1,3 C 3,2 km/h (1 Bft) 100 %
13.02.2017 23:10 1,0 C 1,0 C 1,3 C 72 % 1026,7 hPa 0,0 l/m 0,0 km/h (0 Bft) N-NO 22 0 min 0,000 mm 0 W/m -3,5 C 1,0 C 4,8 km/h (1 Bft) 100 %
13.02.2017 23:20 0,8 C 0,8 C 1,0 C 73 % 1026,7 hPa 0,0 l/m 0,0 km/h (0 Bft) N-NO 22 0 min 0,000 mm 0 W/m -3,5 C 0,8 C 3,2 km/h (1 Bft) 100 %
13.02.2017 23:30 0,7 C 0,7 C 0,8 C 74 % 1026,4 hPa 0,0 l/m 0,0 km/h (0 Bft) N 0 0 min 0,000 mm 0 W/m -3,4 C 0,7 C 0,0 km/h (0 Bft) 100 %
13.02.2017 23:40 0,5 C 0,5 C 0,7 C 75 % 1026,6 hPa 0,0 l/m 0,0 km/h (0 Bft) N 0 0 min 0,000 mm 0 W/m -3,4 C 0,5 C 0,0 km/h (0 Bft) 100 %
13.02.2017 23:50 0,3 C 0,3 C 0,5 C 75 % 1026,7 hPa 0,0 l/m 0,0 km/h (0 Bft) N 0 0 min 0,000 mm 0 W/m -3,6 C 0,3 C 0,0 km/h (0 Bft) 100 %
_ Min-Zeit 03:30 03:30 04:00 15:30 16:40 - 00:10 - - - - - 23:50 03:40 02:50 00:20
Minimum _ -0,1 C -0,1 C -0,1 C 59 % 1026,3 hPa - 0,0 km/h (0 Bft) - - - - - -3,6 C -0,1 C 0,0 km/h (0 Bft) 90 %
_ Max-Zeit 15:20 15:30 15:20 01:00 09:50 00:00 12:20 - - 11:10 13:10 11:50 14:50 15:30 15:40 00:10
Maximum _ 8,1 C 8,0 C 8,1 C 90 % 1029,8 hPa 0,0 l/m 7,5 km/h
O (2 Bft)
- - 20 min 0,178 mm 533 W/m 1,2 C 8,1 C 29,0 km/h
NO (5 Bft)
100 %
Durchschnitt _ 2,4 C 2,4 C 2,5 C 78 % 1028,2 hPa #0,0 l/m 1,9 km/h (1 Bft) NO - #4:20 h #0,914 mm 184 W/m -1,2 C 2,4 C 10,5 km/h (2 Bft) 99 %
PRIVATE WETTERSTATION BILLIGHEIM-ALLFELD - www.neckar-odenwald-wetter.de - Holger Sonntag